Hauptseite
METAR-TAF:

METAR-TAF

Flughäfen :

Flughafen Quimper-Bretagne

Quimper, Frankreich

Breite: 47-58N, Länge: 004-10W, Höhe: 92 m

Beobachtung

Neuester Wetterbericht von vor 30 Minuten, um 11:00 UTC
Wind 7 kt aus Nord
Temperatur 23°C
Luftfeuchtigkeit 57%
Luftdruck 1018 hPa
Sichtweite 10 km oder mehr
Aufgelockert bewölkt in der Höhe von 3500 ft
Durchbrochene Bewölkung in der Höhe von 4700 ft

METAR: LFRQ 191100Z AUTO 36007KT 9999 SCT035 BKN047 23/14 Q1018 NOSIG

Zeit: 13:30 (11:30 UTC)

Prognose

Neuester Wetterbericht von vor 6 Stunden und 30 Minuten, um 05:00 UTC
Gültige Prognose vom 19 um 06 UTC bis 20 um 06 UTC
Wind 8 kt aus Nord
Sichtweite 10 km oder mehr
keine Wolken unter 1500 m und keine Kumulonimbus oder Gewitterwolken

TAF: LFRQ 190500Z 1906/2006 36008KT CAVOK

Wetterbeobachtungen und Prognosen von mehr als 4000 Flughäfen (METAR und TAF Bericht).

Die verfügbaren Stationen werden durch gelbe und rote Markierungen auf der Karte dargestellt.

Führen Sie die Maus auf sie, um den Namen der Station zu sehen.

Darauf klicken, um die Beobachtung von Wetterbeobachtungen und Prognosen zu sehen.

Um die Karte zu ändern : klicken Sie auf den grünen Tasten mit einem schwarzen Kreuz Zum Vergrößern, auf den grünen Button mit einem Gedankenstrich zu verkleinern, oder auf die grünen Pfeile für benachbarte Karten.


METAR-TAF: